Lincoln, Maine
Current Conditions -  °F | °C
As of 12:07 AM on Saturday 25 Oct 2014 (Local Time) from KMLT Reporting Station
Light Rain Light Rain  
Wind Chill: 41°   Ceiling: 3400
Heat Index: 45°   Visibility: 10mi
Dew Point: 41°   Wind: 8mph
Humidity: 86%   Direction: 340°NNW
Pressure: 29.66"   Gusts: 18mph
Location:  45.36°N, 68.5°W
Report Text: KMLT 250407Z AUTO 34007G16KT 10SM -RA BKN034 BKN060 OVC080 07/05 A2966 RMK AO2 P0000 T00720050
Loading
Personal Weather Stations






























Interactive Weather Map
Tropical Storm Tracking
New forecast layout! Learn more

10-Day Weather Forecast

Advertisements
Track Severe Weather on mobile